createdAt,value
2022-12-03T00:00:27.723Z,14.25
2022-12-03T00:02:55.107Z,11.23
2022-12-03T00:05:22.927Z,12.95
2022-12-03T00:07:50.313Z,11.52
2022-12-03T00:10:17.836Z,13.18
2022-12-03T00:12:45.131Z,14.75
2022-12-03T00:15:12.386Z,12.30
2022-12-03T00:17:39.893Z,13.38
2022-12-03T00:20:09.206Z,13.90
2022-12-03T00:22:36.460Z,13.95
2022-12-03T00:25:03.838Z,12.25
2022-12-03T00:27:31.126Z,15.63
2022-12-03T00:29:58.454Z,15.60
2022-12-03T00:32:25.900Z,13.30
2022-12-03T00:34:53.471Z,16.95
2022-12-03T00:37:20.919Z,13.95
2022-12-03T00:39:48.803Z,14.70
2022-12-03T00:42:16.049Z,13.48
2022-12-03T00:44:43.338Z,12.65
2022-12-03T00:47:10.665Z,13.95
2022-12-03T00:49:38.658Z,14.10
2022-12-03T00:52:05.858Z,14.73
2022-12-03T00:54:35.227Z,24.58
2022-12-03T00:57:02.583Z,14.45
2022-12-03T00:59:29.843Z,14.05
2022-12-03T01:01:57.218Z,14.90
2022-12-03T01:04:24.596Z,11.93
2022-12-03T01:06:51.897Z,13.48
2022-12-03T01:09:19.224Z,13.73
2022-12-03T01:11:46.452Z,14.77
2022-12-03T01:14:19.451Z,16.00
2022-12-03T01:16:48.047Z,12.60
2022-12-03T01:19:16.261Z,14.88
2022-12-03T01:21:48.209Z,14.85
2022-12-03T01:24:16.010Z,15.85
2022-12-03T01:26:43.230Z,13.27
2022-12-03T01:29:10.684Z,14.07
2022-12-03T01:31:57.364Z,14.40
2022-12-03T01:34:24.659Z,12.95
2022-12-03T01:36:52.794Z,11.55
2022-12-03T01:39:20.199Z,15.10
2022-12-03T01:41:52.567Z,14.80
2022-12-03T01:44:24.115Z,16.02
2022-12-03T01:46:54.616Z,17.15
2022-12-03T01:49:26.419Z,17.35
2022-12-03T01:51:55.169Z,13.07
2022-12-03T01:54:27.980Z,14.40
2022-12-03T01:56:55.940Z,13.55
2022-12-03T01:59:35.914Z,14.38
2022-12-03T02:02:19.807Z,13.25
2022-12-03T02:04:49.666Z,15.90
2022-12-03T02:07:24.106Z,14.57
2022-12-03T02:09:53.881Z,15.75
2022-12-03T02:12:30.307Z,15.63
2022-12-03T02:14:58.114Z,14.45
2022-12-03T02:17:26.402Z,15.45
2022-12-03T02:19:55.298Z,15.88
2022-12-03T02:22:28.637Z,17.55
2022-12-03T02:25:16.035Z,16.77
2022-12-03T02:27:43.687Z,22.75
2022-12-03T02:30:13.598Z,16.02
2022-12-03T02:32:40.970Z,15.00
2022-12-03T02:35:23.662Z,16.05
2022-12-03T02:37:58.813Z,16.10
2022-12-03T02:40:31.071Z,14.30
2022-12-03T02:43:01.218Z,15.88
2022-12-03T02:45:40.662Z,15.40
2022-12-03T02:48:13.952Z,14.20
2022-12-03T02:50:46.239Z,18.10
2022-12-03T02:53:17.895Z,18.13
2022-12-03T02:55:45.587Z,17.33
2022-12-03T02:58:16.454Z,16.77
2022-12-03T03:00:45.239Z,17.23
2022-12-03T03:03:12.892Z,15.43
2022-12-03T03:05:41.608Z,16.05
2022-12-03T03:08:10.778Z,15.27
2022-12-03T03:10:40.765Z,15.63
2022-12-03T03:13:11.470Z,14.85
2022-12-03T03:18:09.051Z,17.48
2022-12-03T03:20:37.618Z,18.77
2022-12-03T03:23:11.042Z,15.15
2022-12-03T03:25:40.677Z,19.77
2022-12-03T03:28:08.758Z,16.50
2022-12-03T03:30:38.931Z,17.80
2022-12-03T03:33:06.577Z,14.95
2022-12-03T03:35:34.012Z,18.65
2022-12-03T03:38:01.912Z,20.17
2022-12-03T03:40:29.683Z,16.30
2022-12-03T03:42:57.828Z,18.65
2022-12-03T03:45:29.141Z,16.67
2022-12-03T03:47:59.633Z,17.73
2022-12-03T03:50:29.420Z,18.48
2022-12-03T03:53:00.874Z,16.85
2022-12-03T03:55:29.077Z,18.65
2022-12-03T03:57:56.679Z,18.70
2022-12-03T04:00:25.128Z,18.13
2022-12-03T04:02:53.759Z,15.10
2022-12-03T04:05:23.847Z,17.23
2022-12-03T04:07:51.448Z,17.13
2022-12-03T04:10:39.084Z,20.85
2022-12-03T04:13:06.900Z,17.48
2022-12-03T04:15:35.081Z,18.63
2022-12-03T04:18:20.907Z,18.67
2022-12-03T04:20:49.704Z,18.08
2022-12-03T04:23:16.906Z,19.02
2022-12-03T04:26:03.020Z,17.08
2022-12-03T04:28:48.878Z,19.25
2022-12-03T04:31:34.851Z,18.55
2022-12-03T04:34:20.470Z,19.25
2022-12-03T04:36:47.801Z,20.90
2022-12-03T04:39:15.247Z,18.08
2022-12-03T04:41:42.539Z,19.42
2022-12-03T04:44:28.298Z,18.05
2022-12-03T04:46:55.573Z,20.10
2022-12-03T04:49:22.971Z,17.88
2022-12-03T04:51:50.268Z,17.55
2022-12-03T04:54:17.566Z,18.70
2022-12-03T04:56:45.108Z,21.60
2022-12-03T04:59:15.968Z,18.10
2022-12-03T05:01:44.595Z,15.60
2022-12-03T05:04:14.091Z,18.67
2022-12-03T05:06:42.066Z,19.77
2022-12-03T05:09:10.340Z,19.48
2022-12-03T05:11:37.914Z,18.92
2022-12-03T05:14:05.599Z,20.17
2022-12-03T05:16:33.021Z,20.02
2022-12-03T05:19:01.275Z,20.77
2022-12-03T05:21:28.686Z,22.23
2022-12-03T05:23:58.705Z,21.25
2022-12-03T05:26:26.013Z,20.00
2022-12-03T05:28:53.347Z,22.38
2022-12-03T05:31:20.793Z,17.80
2022-12-03T05:33:48.531Z,18.77
2022-12-03T05:36:17.021Z,15.82
2022-12-03T05:38:44.361Z,18.08
2022-12-03T05:41:30.304Z,16.73
2022-12-03T05:43:57.549Z,16.25
2022-12-03T05:46:24.953Z,16.45
2022-12-03T05:48:52.213Z,19.95
2022-12-03T05:51:19.464Z,14.70
2022-12-03T05:53:46.865Z,17.40
2022-12-03T05:56:14.108Z,17.23
2022-12-03T05:58:41.345Z,20.98
2022-12-03T06:01:08.681Z,16.50
2022-12-03T06:03:36.093Z,16.00
2022-12-03T06:06:03.615Z,19.38
2022-12-03T06:08:31.016Z,18.58
2022-12-03T06:10:58.421Z,15.98
2022-12-03T06:13:26.155Z,17.63
2022-12-03T06:15:53.514Z,14.13
2022-12-03T06:18:20.925Z,16.15
2022-12-03T06:20:48.377Z,18.27
2022-12-03T06:23:16.886Z,18.05
2022-12-03T06:25:44.404Z,17.85
2022-12-03T06:28:11.738Z,18.95
2022-12-03T06:30:41.130Z,16.20
2022-12-03T06:33:08.399Z,17.08
2022-12-03T06:35:35.733Z,16.08
2022-12-03T06:38:03.182Z,19.30
2022-12-03T06:40:30.504Z,16.13
2022-12-03T06:42:57.712Z,18.20
2022-12-03T06:45:25.432Z,20.05
2022-12-03T06:47:52.727Z,17.33
2022-12-03T06:50:19.996Z,18.00
2022-12-03T06:52:49.463Z,19.73
2022-12-03T06:55:17.506Z,18.90
2022-12-03T06:57:44.765Z,15.45
2022-12-03T07:00:12.471Z,16.42
2022-12-03T07:02:39.822Z,17.48
2022-12-03T07:05:07.558Z,14.63
2022-12-03T07:07:36.677Z,17.40
2022-12-03T07:10:04.801Z,18.17
2022-12-03T07:12:33.086Z,15.73
2022-12-03T07:15:00.814Z,16.50
2022-12-03T07:17:29.853Z,19.30
2022-12-03T07:19:57.062Z,16.92
2022-12-03T07:22:24.319Z,17.38
2022-12-03T07:24:51.809Z,16.67
2022-12-03T07:27:20.701Z,19.50
2022-12-03T07:29:47.934Z,16.38
2022-12-03T07:32:15.160Z,18.95
2022-12-03T07:34:42.410Z,20.25
2022-12-03T07:37:09.658Z,18.00
2022-12-03T07:39:36.901Z,18.30
2022-12-03T07:42:04.975Z,18.63
2022-12-03T07:44:35.751Z,19.70
2022-12-03T07:47:03.054Z,23.20
2022-12-03T07:49:31.546Z,20.92
2022-12-03T07:51:58.805Z,23.05
2022-12-03T07:54:26.391Z,19.67
2022-12-03T07:56:59.617Z,20.85
2022-12-03T07:59:30.514Z,17.50
2022-12-03T08:01:59.062Z,20.50
2022-12-03T08:04:26.399Z,20.42
2022-12-03T08:06:53.919Z,21.10
2022-12-03T08:09:21.270Z,19.88
2022-12-03T08:11:51.487Z,19.45
2022-12-03T08:14:20.584Z,23.40
2022-12-03T08:16:49.363Z,23.48
2022-12-03T08:19:18.333Z,18.05
2022-12-03T08:21:45.693Z,22.02
2022-12-03T08:24:18.886Z,22.02
2022-12-03T08:26:48.712Z,19.70
2022-12-03T08:29:18.704Z,22.70
2022-12-03T08:31:52.436Z,17.02
2022-12-03T08:34:22.664Z,21.33
2022-12-03T08:36:52.445Z,22.65
2022-12-03T08:39:29.231Z,24.48
2022-12-03T08:42:42.521Z,21.92
2022-12-03T08:45:31.286Z,18.75
2022-12-03T08:48:32.630Z,22.90
2022-12-03T08:51:04.211Z,20.13
2022-12-03T08:53:36.179Z,23.42
2022-12-03T08:56:23.106Z,21.85
2022-12-03T08:59:02.624Z,22.70
2022-12-03T09:01:39.700Z,25.13
2022-12-03T09:04:31.503Z,27.60
2022-12-03T09:06:59.096Z,23.48
2022-12-03T09:09:26.601Z,21.27
2022-12-03T09:11:57.441Z,22.38
2022-12-03T09:14:24.760Z,21.65
2022-12-03T09:16:57.690Z,19.55
2022-12-03T09:19:26.653Z,25.45
2022-12-03T09:21:54.807Z,22.88
2022-12-03T09:24:22.261Z,20.80
2022-12-03T09:26:50.223Z,22.77
2022-12-03T09:29:17.551Z,22.52
2022-12-03T09:31:47.665Z,22.42
2022-12-03T09:34:15.397Z,22.35
2022-12-03T09:36:42.619Z,21.80
2022-12-03T09:39:09.874Z,22.52
2022-12-03T09:41:39.302Z,22.73
2022-12-03T09:44:09.653Z,22.65
2022-12-03T09:46:40.257Z,25.42
2022-12-03T09:49:15.585Z,24.50
2022-12-03T09:51:44.473Z,21.67
2022-12-03T09:54:26.321Z,25.20
2022-12-03T09:56:56.627Z,23.13
2022-12-03T09:59:27.923Z,22.38
2022-12-03T10:01:55.929Z,23.02
2022-12-03T10:04:23.427Z,23.50
2022-12-03T10:06:51.655Z,25.20
2022-12-03T10:09:24.501Z,22.30
2022-12-03T10:11:52.270Z,23.42
2022-12-03T10:14:20.306Z,23.13
2022-12-03T10:16:49.099Z,22.75
2022-12-03T10:19:22.312Z,24.08
2022-12-03T10:21:49.638Z,20.73
2022-12-03T10:24:16.828Z,22.10
2022-12-03T10:26:49.022Z,22.90
2022-12-03T10:29:33.164Z,22.10
2022-12-03T10:32:06.259Z,22.35
2022-12-03T10:34:36.866Z,22.27
2022-12-03T10:37:22.495Z,21.52
2022-12-03T10:40:00.532Z,23.70
2022-12-03T10:42:35.255Z,21.02
2022-12-03T10:45:29.148Z,22.63
2022-12-03T10:48:06.777Z,24.15
2022-12-03T10:50:35.397Z,21.83
2022-12-03T10:53:03.096Z,24.65
2022-12-03T10:55:39.883Z,23.98
2022-12-03T10:58:17.980Z,25.77
2022-12-03T11:00:45.396Z,20.50
2022-12-03T11:03:26.739Z,26.73
2022-12-03T11:05:57.937Z,24.92
2022-12-03T11:08:28.959Z,24.05
2022-12-03T11:11:18.120Z,22.90
2022-12-03T11:13:59.959Z,21.30
2022-12-03T11:16:39.163Z,25.58
2022-12-03T11:19:17.495Z,22.60
2022-12-03T11:22:03.894Z,21.90
2022-12-03T11:24:34.445Z,21.13
2022-12-03T11:27:01.689Z,21.90
2022-12-03T11:29:53.635Z,22.17
2022-12-03T11:33:01.889Z,25.63
2022-12-03T11:35:36.893Z,30.83
2022-12-03T11:41:31.943Z,24.58
2022-12-03T11:44:26.047Z,23.10
2022-12-03T11:46:54.392Z,25.77
2022-12-03T11:49:28.953Z,21.30
2022-12-03T11:51:58.136Z,24.08
2022-12-03T11:54:25.728Z,26.08
2022-12-03T11:56:54.366Z,22.60
2022-12-03T11:59:22.553Z,26.48
2022-12-03T12:01:51.279Z,21.65
2022-12-03T12:04:37.845Z,26.80
2022-12-03T12:07:05.380Z,24.52
2022-12-03T12:09:53.856Z,25.23
2022-12-03T12:12:53.257Z,22.75
2022-12-03T12:15:59.536Z,23.75
2022-12-03T12:18:54.701Z,23.13
2022-12-03T12:21:43.897Z,27.80
2022-12-03T12:24:51.560Z,22.42
2022-12-03T12:27:51.723Z,22.33
2022-12-03T12:30:21.865Z,23.90
2022-12-03T12:32:50.654Z,25.20
2022-12-03T12:35:24.167Z,27.50
2022-12-03T12:38:00.476Z,25.75
2022-12-03T12:40:32.264Z,29.67
2022-12-03T12:43:08.291Z,26.75
2022-12-03T12:45:41.617Z,25.52
2022-12-03T12:48:25.965Z,23.52
2022-12-03T12:51:01.852Z,21.63
2022-12-03T12:53:37.004Z,26.92
2022-12-03T12:56:15.197Z,22.80
2022-12-03T12:58:43.107Z,24.98
2022-12-03T13:01:36.905Z,25.35
2022-12-03T13:04:13.922Z,24.88
2022-12-03T13:06:41.610Z,25.15
2022-12-03T13:09:17.865Z,26.38
2022-12-03T13:11:58.229Z,26.85
2022-12-03T13:14:32.160Z,22.75
2022-12-03T13:17:09.863Z,24.30
2022-12-03T13:19:48.250Z,24.33
2022-12-03T13:22:21.981Z,24.80
2022-12-03T13:24:56.095Z,21.73
2022-12-03T13:27:29.625Z,26.85
2022-12-03T13:30:21.015Z,25.92
2022-12-03T13:32:49.168Z,26.23
2022-12-03T13:35:27.241Z,27.80
2022-12-03T13:37:54.508Z,26.77
2022-12-03T13:40:35.309Z,27.60
2022-12-03T13:43:21.084Z,28.13
2022-12-03T13:45:50.683Z,25.85
2022-12-03T13:48:35.626Z,24.08
2022-12-03T13:51:21.148Z,26.48
2022-12-03T13:53:49.070Z,28.75
2022-12-03T13:56:33.734Z,26.42
2022-12-03T13:59:01.753Z,25.77
2022-12-03T14:01:29.564Z,25.70
2022-12-03T14:03:57.094Z,25.08
2022-12-03T14:06:24.404Z,32.17
2022-12-03T14:08:51.673Z,26.55
2022-12-03T14:11:38.328Z,28.27
2022-12-03T14:14:05.747Z,26.45
2022-12-03T14:16:33.120Z,26.80
2022-12-03T14:19:00.848Z,26.65
2022-12-03T14:21:28.306Z,25.30
2022-12-03T14:23:55.620Z,24.27
2022-12-03T14:26:22.889Z,25.20
2022-12-03T14:28:50.223Z,24.55
2022-12-03T14:31:17.601Z,24.23
2022-12-03T14:33:44.947Z,25.85
2022-12-03T14:36:12.312Z,26.70
2022-12-03T14:38:39.578Z,28.77
2022-12-03T14:41:26.784Z,25.02
2022-12-03T14:43:54.284Z,26.73
2022-12-03T14:46:21.689Z,29.40
2022-12-03T14:48:50.364Z,26.17
2022-12-03T14:51:18.746Z,28.95
2022-12-03T14:53:46.034Z,28.15
2022-12-03T14:56:13.288Z,24.67
2022-12-03T14:58:40.644Z,24.48
2022-12-03T15:01:08.021Z,27.90
2022-12-03T15:03:36.445Z,24.95
2022-12-03T15:06:03.776Z,27.35
2022-12-03T15:08:31.395Z,24.98
2022-12-03T15:10:58.729Z,26.00
2022-12-03T15:13:26.612Z,23.80
2022-12-03T15:15:53.849Z,27.95
2022-12-03T15:18:21.144Z,25.83
2022-12-03T15:20:49.903Z,29.70
2022-12-03T15:23:17.970Z,29.58
2022-12-03T15:25:45.252Z,24.58
2022-12-03T15:28:12.612Z,30.48
2022-12-03T15:30:39.902Z,29.77
2022-12-03T15:33:09.313Z,28.48
2022-12-03T15:35:36.869Z,28.35
2022-12-03T15:38:04.137Z,29.38
2022-12-03T15:40:31.843Z,31.95
2022-12-03T15:42:59.159Z,28.17
2022-12-03T15:45:26.475Z,31.83
2022-12-03T15:47:53.849Z,30.83
2022-12-03T15:50:34.582Z,28.23
2022-12-03T15:53:06.135Z,27.73
2022-12-03T15:55:36.030Z,30.98
2022-12-03T15:58:03.588Z,29.23
2022-12-03T16:00:30.847Z,27.38
2022-12-03T16:02:58.126Z,27.30
2022-12-03T16:05:25.530Z,30.55
2022-12-03T16:07:52.877Z,27.15
2022-12-03T16:10:21.574Z,27.23
2022-12-03T16:12:50.525Z,27.77
2022-12-03T16:15:22.100Z,28.80
2022-12-03T16:17:52.563Z,25.38
2022-12-03T16:20:19.886Z,28.35
2022-12-03T16:22:47.616Z,25.05
2022-12-03T16:25:15.044Z,25.65
2022-12-03T16:27:42.426Z,26.65
2022-12-03T16:30:10.326Z,28.35
2022-12-03T16:32:37.757Z,29.00
2022-12-03T16:35:05.773Z,28.75
2022-12-03T16:37:33.259Z,26.95
2022-12-03T16:40:02.879Z,27.17
2022-12-03T16:42:30.720Z,29.90
2022-12-03T16:44:57.977Z,26.98
2022-12-03T16:47:30.636Z,28.00
2022-12-03T16:50:05.176Z,26.90
2022-12-03T16:52:32.606Z,25.58
2022-12-03T16:55:00.104Z,27.55
2022-12-03T16:57:33.104Z,24.23
2022-12-03T17:00:01.741Z,28.67
2022-12-03T17:02:29.053Z,29.55
2022-12-03T17:04:56.404Z,29.25
2022-12-03T17:07:23.747Z,28.08
2022-12-03T17:09:51.191Z,29.13
2022-12-03T17:12:18.583Z,31.77
2022-12-03T17:14:45.891Z,27.85
2022-12-03T17:17:13.158Z,28.48
2022-12-03T17:19:40.375Z,27.08
2022-12-03T17:22:07.680Z,29.67
2022-12-03T17:24:34.926Z,25.80
2022-12-03T17:27:02.305Z,28.98
2022-12-03T17:29:29.565Z,24.65
2022-12-03T17:31:56.884Z,29.30
2022-12-03T17:34:24.154Z,25.95
2022-12-03T17:36:51.626Z,25.98
2022-12-03T17:39:18.902Z,29.33
2022-12-03T17:41:50.189Z,24.52
2022-12-03T17:44:21.245Z,28.30
2022-12-03T17:46:50.193Z,27.77
2022-12-03T17:49:17.683Z,26.38
2022-12-03T17:51:44.893Z,27.20
2022-12-03T17:54:13.969Z,26.73
2022-12-03T17:56:43.596Z,25.50
2022-12-03T17:59:14.572Z,26.30
2022-12-03T18:01:42.458Z,25.95
2022-12-03T18:04:10.464Z,28.50
2022-12-03T18:06:38.160Z,25.45
2022-12-03T18:09:05.866Z,25.58
2022-12-03T18:11:35.159Z,26.08
2022-12-03T18:14:02.466Z,25.42
2022-12-03T18:16:29.939Z,26.73
2022-12-03T18:19:02.032Z,26.70
2022-12-03T18:21:33.975Z,26.90
2022-12-03T18:24:02.258Z,28.80
2022-12-03T18:26:29.743Z,25.50
2022-12-03T18:28:57.203Z,24.05
2022-12-03T18:31:24.583Z,23.48
2022-12-03T18:33:52.817Z,25.02
2022-12-03T18:36:26.144Z,23.33
2022-12-03T18:38:55.464Z,21.77
2022-12-03T18:41:24.415Z,23.58
2022-12-03T18:43:52.793Z,22.90
2022-12-03T18:49:09.460Z,26.85
2022-12-03T18:51:37.290Z,26.45
2022-12-03T18:54:04.768Z,23.13
2022-12-03T18:56:32.013Z,31.30
2022-12-03T18:58:59.253Z,24.77
2022-12-03T19:01:26.587Z,25.42
2022-12-03T19:03:55.359Z,24.00
2022-12-03T19:06:22.653Z,19.95
2022-12-03T19:08:54.044Z,24.63
2022-12-03T19:11:22.083Z,27.73
2022-12-03T19:13:49.483Z,26.40
2022-12-03T19:16:17.313Z,26.02
2022-12-03T19:18:45.283Z,29.45
2022-12-03T19:21:15.498Z,21.90
2022-12-03T19:24:04.325Z,25.75
2022-12-03T19:26:30.930Z,24.88
2022-12-03T19:28:59.800Z,24.90
2022-12-03T19:31:27.372Z,27.20
2022-12-03T19:33:54.682Z,26.92
2022-12-03T19:36:25.359Z,25.15
2022-12-03T19:41:28.487Z,26.45
2022-12-03T19:43:57.070Z,26.15
2022-12-03T19:46:28.655Z,26.35
2022-12-03T19:48:56.264Z,25.33
2022-12-03T19:51:34.733Z,25.98
2022-12-03T19:54:08.039Z,24.70
2022-12-03T19:56:35.643Z,26.33
2022-12-03T19:59:03.560Z,27.33
2022-12-03T20:01:50.968Z,23.30
2022-12-03T20:04:18.392Z,26.40
2022-12-03T20:06:45.700Z,26.75
2022-12-03T20:09:17.284Z,25.13
2022-12-03T20:11:45.798Z,25.50
2022-12-03T20:14:15.474Z,26.38
2022-12-03T20:16:43.973Z,22.00
2022-12-03T20:19:13.564Z,25.45
2022-12-03T20:21:44.795Z,26.60
2022-12-03T20:24:17.615Z,27.30
2022-12-03T20:26:47.657Z,23.30
2022-12-03T20:29:15.179Z,17.65
2022-12-03T20:31:43.710Z,27.00
2022-12-03T20:34:11.364Z,26.75
2022-12-03T20:36:42.390Z,26.13
2022-12-03T20:39:10.335Z,26.35
2022-12-03T20:41:38.001Z,25.85
2022-12-03T20:44:07.731Z,29.73
2022-12-03T20:46:36.491Z,31.98
2022-12-03T20:49:04.828Z,26.95
2022-12-03T20:51:32.591Z,27.45
2022-12-03T20:54:01.173Z,30.35
2022-12-03T20:56:31.599Z,28.92
2022-12-03T20:59:10.355Z,29.98
2022-12-03T21:01:38.627Z,25.13
2022-12-03T21:04:07.281Z,30.35
2022-12-03T21:06:36.916Z,27.08
2022-12-03T21:09:08.371Z,28.00
2022-12-03T21:11:41.473Z,27.02
2022-12-03T21:14:11.237Z,24.88
2022-12-03T21:19:30.237Z,30.90
2022-12-03T21:21:57.534Z,26.95
2022-12-03T21:24:24.824Z,30.27
2022-12-03T21:26:52.136Z,28.50
2022-12-03T21:29:19.509Z,37.65
2022-12-03T21:31:46.956Z,36.78
2022-12-03T21:34:14.144Z,32.80
2022-12-03T21:36:41.715Z,37.05
2022-12-03T21:39:09.455Z,33.53
2022-12-03T21:41:36.819Z,30.80
2022-12-03T21:44:04.507Z,34.00
2022-12-03T21:47:10.098Z,33.28
2022-12-03T21:49:20.920Z,34.55
2022-12-03T21:51:48.677Z,36.83
2022-12-03T21:54:15.968Z,36.92
2022-12-03T21:56:43.442Z,37.03
2022-12-03T21:59:10.609Z,33.70
2022-12-03T22:01:40.574Z,36.33
2022-12-03T22:04:10.128Z,37.83
2022-12-03T22:06:37.367Z,31.75
2022-12-03T22:09:04.702Z,35.47
2022-12-03T22:11:31.994Z,33.47
2022-12-03T22:13:59.310Z,33.97
2022-12-03T22:16:26.638Z,32.72
2022-12-03T22:18:54.319Z,35.58
2022-12-03T22:21:21.874Z,35.45
2022-12-03T22:23:49.125Z,30.33
2022-12-03T22:26:18.557Z,34.20
2022-12-03T22:28:47.986Z,32.95
2022-12-03T22:31:16.877Z,31.15
2022-12-03T22:33:48.138Z,37.58
2022-12-03T22:36:21.063Z,34.75
2022-12-03T22:38:50.944Z,38.58
2022-12-03T22:41:20.178Z,39.60
2022-12-03T22:43:48.879Z,32.00
2022-12-03T22:46:17.434Z,36.25
2022-12-03T22:48:47.669Z,33.42
2022-12-03T22:51:20.652Z,29.27
2022-12-03T22:53:48.818Z,31.58
2022-12-03T22:56:17.323Z,31.08
2022-12-03T22:58:44.905Z,34.15
2022-12-03T23:01:38.637Z,33.22
2022-12-03T23:04:11.723Z,32.22
2022-12-03T23:06:40.321Z,33.20
2022-12-03T23:09:08.602Z,32.45
2022-12-03T23:11:37.117Z,30.70
2022-12-03T23:14:04.616Z,31.10
2022-12-03T23:16:33.278Z,32.65
2022-12-03T23:19:01.798Z,28.00
2022-12-03T23:21:31.833Z,28.08
2022-12-03T23:24:00.312Z,34.78
2022-12-03T23:26:28.620Z,27.33
2022-12-03T23:28:56.479Z,30.85
2022-12-03T23:31:26.770Z,29.52
2022-12-03T23:33:54.925Z,31.13
2022-12-03T23:36:23.466Z,33.97
2022-12-03T23:38:50.809Z,27.45
2022-12-03T23:41:20.732Z,28.70
2022-12-03T23:43:49.262Z,32.70
2022-12-03T23:46:20.064Z,26.35
2022-12-03T23:48:47.728Z,30.48
2022-12-03T23:51:17.880Z,31.40
2022-12-03T23:53:47.653Z,31.95
2022-12-03T23:56:21.950Z,30.13
2022-12-03T23:58:49.230Z,25.88
